This is the latest recevied weather packets stored in our database for station/object KD4VIF. If no packets are shown the sender has not sent any weather packets the latest 1 day(s).
| Time | Temp. | Humidity | Pressure | Rain* | Wind** | Luminosity | Snow |
|---|---|---|---|---|---|---|---|
| 1836274662 | 20.56° C | 100% | 1016.9 hPa | 0 mm | 0 m/s | - | - |
| 1836274524 | 21.11° C | 100% | 1016.3 hPa | 0 mm | 0 m/s | - | - |
| 1836274521 | 20.56° C | 100% | 1016.9 hPa | 0 mm | 0 m/s | - | - |
| 1836274369 | 20.56° C | 100% | 1016.9 hPa | 0 mm | 0 m/s | - | - |
| 1836274253 | 21.11° C | 100% | 1016.4 hPa | 0 mm | 0 m/s | - | - |
| 1836273923 | 20.56° C | 100% | 1016.8 hPa | 0 mm | 0 m/s | - | - |
| 1778046400 | 17.78° C | 100% | 1014.5 hPa | 0 mm | 0 m/s | - | - |
| 1778046099 | 18.33° C | 100% | 1014.5 hPa | 0 mm | 0.45 m/s, 194° | - | - |
| 1778045200 | 18.33° C | 100% | 1014.7 hPa | 0 mm | 1.34 m/s, 230° | - | - |
| 1778044302 | 18.33° C | 100% | 1014.7 hPa | 0 mm | 0 m/s | - | - |
| 1778044047 | 18.33° C | 100% | 1014.9 hPa | 0 mm | 0 m/s | - | - |
| 1778043999 | 18.33° C | 100% | 1014.9 hPa | 0 mm | 0 m/s | - | - |
| 1778043700 | 18.33° C | 100% | 1014.9 hPa | 0 mm | 1.34 m/s, 180° | - | - |
| 1778043100 | 18.89° C | 100% | 1014.9 hPa | 0 mm | 0 m/s | - | - |
| 1778042799 | 18.89° C | 100% | 1014.8 hPa | 0 mm | 0 m/s | - | - |
| 1778042560 | 18.89° C | 100% | 1014.8 hPa | 0 mm | 0 m/s | - | - |
| 1778042499 | 18.89° C | 100% | 1014.8 hPa | 0 mm | 0 m/s | - | - |
| 1778042200 | 18.89° C | 100% | 1014.8 hPa | 0 mm | 0.45 m/s, 165° | - | - |
| 1778041899 | 18.89° C | 100% | 1014.8 hPa | 0 mm | 0 m/s | - | - |
| 1778041600 | 18.89° C | 100% | 1015 hPa | 0 mm | 0 m/s | - | - |
| 1778041299 | 18.89° C | 100% | 1014.8 hPa | 0 mm | 0 m/s | - | - |
| 1778041000 | 19.44° C | 100% | 1015.1 hPa | 0 mm | 1.34 m/s, 194° | - | - |
| 1778040400 | 19.44° C | 100% | 1014.8 hPa | 0 mm | 0 m/s | - | - |
| 1778040099 | 19.44° C | 100% | 1014.8 hPa | 0 mm | 0 m/s | - | - |
| 1778039799 | 19.44° C | 100% | 1014.7 hPa | 0 mm | 0 m/s | - | - |
* Rain latest hour (hover to see other rain measurements)
** Current wind speed in m/s (hover to see current wind gust speed)